sensor_id;sensor_type;location;lat;lon;timestamp;P1;durP1;ratioP1;P2;durP2;ratioP2
5077;SDS011;2557;51.390;7.494;2024-02-28T00:01:49;38.38;;;21.55;;
5077;SDS011;2557;51.390;7.494;2024-02-28T00:04:16;42.45;;;22.10;;
5077;SDS011;2557;51.390;7.494;2024-02-28T00:06:42;55.03;;;25.30;;
5077;SDS011;2557;51.390;7.494;2024-02-28T00:09:07;58.77;;;25.37;;
5077;SDS011;2557;51.390;7.494;2024-02-28T00:11:34;57.05;;;24.70;;
5077;SDS011;2557;51.390;7.494;2024-02-28T00:14:00;53.78;;;25.60;;
5077;SDS011;2557;51.390;7.494;2024-02-28T00:16:27;54.88;;;26.55;;
5077;SDS011;2557;51.390;7.494;2024-02-28T00:18:53;58.90;;;28.37;;
5077;SDS011;2557;51.390;7.494;2024-02-28T00:21:19;61.80;;;27.45;;
5077;SDS011;2557;51.390;7.494;2024-02-28T00:23:45;59.88;;;25.65;;
5077;SDS011;2557;51.390;7.494;2024-02-28T00:26:11;61.23;;;25.23;;
5077;SDS011;2557;51.390;7.494;2024-02-28T00:28:38;55.80;;;27.10;;
5077;SDS011;2557;51.390;7.494;2024-02-28T00:31:03;56.87;;;25.87;;
5077;SDS011;2557;51.390;7.494;2024-02-28T00:33:29;58.60;;;24.80;;
5077;SDS011;2557;51.390;7.494;2024-02-28T00:35:55;49.97;;;22.90;;
5077;SDS011;2557;51.390;7.494;2024-02-28T00:38:21;71.57;;;30.48;;
5077;SDS011;2557;51.390;7.494;2024-02-28T00:40:47;55.25;;;26.05;;
5077;SDS011;2557;51.390;7.494;2024-02-28T00:43:13;58.17;;;27.40;;
5077;SDS011;2557;51.390;7.494;2024-02-28T00:45:39;82.05;;;31.15;;
5077;SDS011;2557;51.390;7.494;2024-02-28T00:48:06;95.60;;;30.07;;
5077;SDS011;2557;51.390;7.494;2024-02-28T00:50:32;69.13;;;30.05;;
5077;SDS011;2557;51.390;7.494;2024-02-28T00:52:58;63.57;;;28.37;;
5077;SDS011;2557;51.390;7.494;2024-02-28T00:55:24;66.80;;;29.73;;
5077;SDS011;2557;51.390;7.494;2024-02-28T00:57:50;66.87;;;29.40;;
5077;SDS011;2557;51.390;7.494;2024-02-28T01:00:16;58.73;;;29.67;;
5077;SDS011;2557;51.390;7.494;2024-02-28T01:02:42;65.82;;;29.90;;
5077;SDS011;2557;51.390;7.494;2024-02-28T01:05:08;64.20;;;27.83;;
5077;SDS011;2557;51.390;7.494;2024-02-28T01:07:34;66.85;;;30.77;;
5077;SDS011;2557;51.390;7.494;2024-02-28T01:10:00;62.95;;;28.38;;
5077;SDS011;2557;51.390;7.494;2024-02-28T01:12:26;81.32;;;29.73;;
5077;SDS011;2557;51.390;7.494;2024-02-28T01:14:52;94.07;;;30.50;;
5077;SDS011;2557;51.390;7.494;2024-02-28T01:17:18;74.05;;;29.80;;
5077;SDS011;2557;51.390;7.494;2024-02-28T01:19:44;73.73;;;29.37;;
5077;SDS011;2557;51.390;7.494;2024-02-28T01:22:10;71.40;;;30.10;;
5077;SDS011;2557;51.390;7.494;2024-02-28T01:24:36;68.10;;;29.80;;
5077;SDS011;2557;51.390;7.494;2024-02-28T01:27:02;59.53;;;27.50;;
5077;SDS011;2557;51.390;7.494;2024-02-28T01:29:28;73.75;;;31.17;;
5077;SDS011;2557;51.390;7.494;2024-02-28T01:31:55;112.65;;;30.15;;
5077;SDS011;2557;51.390;7.494;2024-02-28T01:34:21;85.03;;;29.35;;
5077;SDS011;2557;51.390;7.494;2024-02-28T01:36:47;80.10;;;28.13;;
5077;SDS011;2557;51.390;7.494;2024-02-28T01:39:13;84.18;;;28.63;;
5077;SDS011;2557;51.390;7.494;2024-02-28T01:41:39;63.78;;;27.35;;
5077;SDS011;2557;51.390;7.494;2024-02-28T01:44:05;67.03;;;29.15;;
5077;SDS011;2557;51.390;7.494;2024-02-28T01:46:31;102.85;;;31.50;;
5077;SDS011;2557;51.390;7.494;2024-02-28T01:48:58;137.93;;;33.33;;
5077;SDS011;2557;51.390;7.494;2024-02-28T01:51:24;135.82;;;31.83;;
5077;SDS011;2557;51.390;7.494;2024-02-28T01:53:52;138.77;;;31.48;;
5077;SDS011;2557;51.390;7.494;2024-02-28T01:56:18;124.55;;;29.55;;
5077;SDS011;2557;51.390;7.494;2024-02-28T01:58:48;121.47;;;30.80;;
5077;SDS011;2557;51.390;7.494;2024-02-28T02:01:14;101.95;;;29.67;;
5077;SDS011;2557;51.390;7.494;2024-02-28T02:03:40;184.00;;;34.60;;
5077;SDS011;2557;51.390;7.494;2024-02-28T02:06:06;140.23;;;31.05;;
5077;SDS011;2557;51.390;7.494;2024-02-28T02:08:33;180.48;;;32.17;;
5077;SDS011;2557;51.390;7.494;2024-02-28T02:10:59;85.35;;;26.88;;
5077;SDS011;2557;51.390;7.494;2024-02-28T02:13:25;70.65;;;25.08;;
5077;SDS011;2557;51.390;7.494;2024-02-28T02:15:51;101.95;;;29.15;;
5077;SDS011;2557;51.390;7.494;2024-02-28T02:18:17;107.50;;;29.17;;
5077;SDS011;2557;51.390;7.494;2024-02-28T02:20:43;196.80;;;33.00;;
5077;SDS011;2557;51.390;7.494;2024-02-28T02:23:10;99.82;;;27.20;;
5077;SDS011;2557;51.390;7.494;2024-02-28T02:25:45;117.97;;;27.90;;
5077;SDS011;2557;51.390;7.494;2024-02-28T02:28:11;107.63;;;28.73;;
5077;SDS011;2557;51.390;7.494;2024-02-28T02:30:37;75.20;;;26.30;;
5077;SDS011;2557;51.390;7.494;2024-02-28T02:33:04;76.38;;;26.73;;
5077;SDS011;2557;51.390;7.494;2024-02-28T02:35:30;96.72;;;27.92;;
5077;SDS011;2557;51.390;7.494;2024-02-28T02:37:56;85.30;;;27.88;;
5077;SDS011;2557;51.390;7.494;2024-02-28T02:40:22;85.05;;;26.15;;
5077;SDS011;2557;51.390;7.494;2024-02-28T02:42:48;72.30;;;26.47;;
5077;SDS011;2557;51.390;7.494;2024-02-28T02:45:14;83.07;;;26.23;;
5077;SDS011;2557;51.390;7.494;2024-02-28T02:47:40;62.07;;;26.50;;
5077;SDS011;2557;51.390;7.494;2024-02-28T02:50:08;112.32;;;26.63;;
5077;SDS011;2557;51.390;7.494;2024-02-28T02:52:34;97.13;;;30.20;;
5077;SDS011;2557;51.390;7.494;2024-02-28T02:55:00;172.03;;;31.57;;
5077;SDS011;2557;51.390;7.494;2024-02-28T02:57:26;148.53;;;30.20;;
5077;SDS011;2557;51.390;7.494;2024-02-28T02:59:52;62.23;;;25.37;;
5077;SDS011;2557;51.390;7.494;2024-02-28T03:02:18;124.18;;;32.80;;
5077;SDS011;2557;51.390;7.494;2024-02-28T03:04:44;75.40;;;23.90;;
5077;SDS011;2557;51.390;7.494;2024-02-28T03:07:10;69.47;;;22.87;;
5077;SDS011;2557;51.390;7.494;2024-02-28T03:09:36;76.47;;;25.35;;
5077;SDS011;2557;51.390;7.494;2024-02-28T03:12:02;91.47;;;26.60;;
5077;SDS011;2557;51.390;7.494;2024-02-28T03:14:28;68.70;;;23.92;;
5077;SDS011;2557;51.390;7.494;2024-02-28T03:16:54;48.40;;;22.47;;
5077;SDS011;2557;51.390;7.494;2024-02-28T03:19:21;57.58;;;21.23;;
5077;SDS011;2557;51.390;7.494;2024-02-28T03:21:47;60.20;;;23.08;;
5077;SDS011;2557;51.390;7.494;2024-02-28T03:24:13;48.97;;;21.48;;
5077;SDS011;2557;51.390;7.494;2024-02-28T03:26:39;49.37;;;23.27;;
5077;SDS011;2557;51.390;7.494;2024-02-28T03:29:05;49.38;;;22.38;;
5077;SDS011;2557;51.390;7.494;2024-02-28T03:31:31;45.43;;;24.50;;
5077;SDS011;2557;51.390;7.494;2024-02-28T03:33:57;58.65;;;25.13;;
5077;SDS011;2557;51.390;7.494;2024-02-28T03:36:23;47.42;;;23.15;;
5077;SDS011;2557;51.390;7.494;2024-02-28T03:38:49;44.87;;;23.03;;
5077;SDS011;2557;51.390;7.494;2024-02-28T03:41:15;50.37;;;23.33;;
5077;SDS011;2557;51.390;7.494;2024-02-28T03:43:41;67.43;;;29.87;;
5077;SDS011;2557;51.390;7.494;2024-02-28T03:46:07;63.70;;;28.33;;
5077;SDS011;2557;51.390;7.494;2024-02-28T03:48:34;56.83;;;25.85;;
5077;SDS011;2557;51.390;7.494;2024-02-28T03:51:00;55.13;;;27.47;;
5077;SDS011;2557;51.390;7.494;2024-02-28T03:53:26;46.67;;;24.73;;
5077;SDS011;2557;51.390;7.494;2024-02-28T03:55:52;50.65;;;25.75;;
5077;SDS011;2557;51.390;7.494;2024-02-28T03:58:19;59.25;;;25.45;;
5077;SDS011;2557;51.390;7.494;2024-02-28T04:00:44;59.63;;;28.00;;
5077;SDS011;2557;51.390;7.494;2024-02-28T04:03:11;63.10;;;28.27;;
5077;SDS011;2557;51.390;7.494;2024-02-28T04:05:38;61.60;;;27.65;;
5077;SDS011;2557;51.390;7.494;2024-02-28T04:08:05;55.67;;;27.00;;
5077;SDS011;2557;51.390;7.494;2024-02-28T04:10:31;70.15;;;29.70;;
5077;SDS011;2557;51.390;7.494;2024-02-28T04:12:56;62.17;;;28.70;;
5077;SDS011;2557;51.390;7.494;2024-02-28T04:15:22;68.97;;;27.40;;
5077;SDS011;2557;51.390;7.494;2024-02-28T04:17:51;69.85;;;31.60;;
5077;SDS011;2557;51.390;7.494;2024-02-28T04:20:17;67.00;;;29.38;;
5077;SDS011;2557;51.390;7.494;2024-02-28T04:22:43;60.27;;;27.83;;
5077;SDS011;2557;51.390;7.494;2024-02-28T04:25:09;70.15;;;30.08;;
5077;SDS011;2557;51.390;7.494;2024-02-28T04:27:35;64.55;;;30.08;;
5077;SDS011;2557;51.390;7.494;2024-02-28T04:30:01;52.47;;;25.88;;
5077;SDS011;2557;51.390;7.494;2024-02-28T04:32:27;59.28;;;24.58;;
5077;SDS011;2557;51.390;7.494;2024-02-28T04:34:53;62.43;;;29.63;;
5077;SDS011;2557;51.390;7.494;2024-02-28T04:37:19;61.58;;;27.00;;
5077;SDS011;2557;51.390;7.494;2024-02-28T04:39:45;62.27;;;26.07;;
5077;SDS011;2557;51.390;7.494;2024-02-28T04:42:12;53.78;;;24.58;;
5077;SDS011;2557;51.390;7.494;2024-02-28T04:44:38;57.63;;;25.88;;
5077;SDS011;2557;51.390;7.494;2024-02-28T04:47:04;52.45;;;24.60;;
5077;SDS011;2557;51.390;7.494;2024-02-28T04:49:30;57.75;;;23.05;;
5077;SDS011;2557;51.390;7.494;2024-02-28T04:51:56;60.03;;;25.23;;
5077;SDS011;2557;51.390;7.494;2024-02-28T04:54:23;56.92;;;24.58;;
5077;SDS011;2557;51.390;7.494;2024-02-28T04:56:49;59.95;;;25.63;;
5077;SDS011;2557;51.390;7.494;2024-02-28T04:59:16;48.10;;;23.75;;
5077;SDS011;2557;51.390;7.494;2024-02-28T05:01:42;41.15;;;22.80;;
5077;SDS011;2557;51.390;7.494;2024-02-28T05:04:10;52.35;;;24.73;;
5077;SDS011;2557;51.390;7.494;2024-02-28T05:06:36;53.47;;;25.87;;
5077;SDS011;2557;51.390;7.494;2024-02-28T05:09:02;43.67;;;24.17;;
5077;SDS011;2557;51.390;7.494;2024-02-28T05:11:29;45.08;;;23.65;;
5077;SDS011;2557;51.390;7.494;2024-02-28T05:13:55;39.03;;;20.60;;
5077;SDS011;2557;51.390;7.494;2024-02-28T05:16:21;47.95;;;23.08;;
5077;SDS011;2557;51.390;7.494;2024-02-28T05:18:47;40.40;;;19.77;;
5077;SDS011;2557;51.390;7.494;2024-02-28T05:21:13;46.15;;;21.05;;
5077;SDS011;2557;51.390;7.494;2024-02-28T05:23:39;50.35;;;22.00;;
5077;SDS011;2557;51.390;7.494;2024-02-28T05:26:05;41.67;;;21.33;;
5077;SDS011;2557;51.390;7.494;2024-02-28T05:28:35;42.72;;;20.80;;
5077;SDS011;2557;51.390;7.494;2024-02-28T05:31:02;45.45;;;22.35;;
5077;SDS011;2557;51.390;7.494;2024-02-28T05:33:35;41.63;;;20.55;;
5077;SDS011;2557;51.390;7.494;2024-02-28T05:36:01;38.30;;;20.88;;
5077;SDS011;2557;51.390;7.494;2024-02-28T05:38:29;38.72;;;20.33;;
5077;SDS011;2557;51.390;7.494;2024-02-28T05:40:55;38.20;;;22.57;;
5077;SDS011;2557;51.390;7.494;2024-02-28T05:43:21;41.03;;;20.80;;
5077;SDS011;2557;51.390;7.494;2024-02-28T05:45:47;39.92;;;21.95;;
5077;SDS011;2557;51.390;7.494;2024-02-28T05:48:13;47.73;;;21.80;;
5077;SDS011;2557;51.390;7.494;2024-02-28T05:50:39;42.58;;;21.05;;
5077;SDS011;2557;51.390;7.494;2024-02-28T05:53:05;38.13;;;19.70;;
5077;SDS011;2557;51.390;7.494;2024-02-28T05:55:31;48.87;;;21.00;;
5077;SDS011;2557;51.390;7.494;2024-02-28T05:57:57;57.43;;;24.70;;
5077;SDS011;2557;51.390;7.494;2024-02-28T06:00:23;53.03;;;24.05;;
5077;SDS011;2557;51.390;7.494;2024-02-28T06:02:49;58.37;;;25.10;;
5077;SDS011;2557;51.390;7.494;2024-02-28T06:05:15;53.00;;;23.70;;
5077;SDS011;2557;51.390;7.494;2024-02-28T06:07:41;61.00;;;27.05;;
5077;SDS011;2557;51.390;7.494;2024-02-28T06:10:07;57.20;;;24.93;;
5077;SDS011;2557;51.390;7.494;2024-02-28T06:12:33;54.60;;;24.55;;
5077;SDS011;2557;51.390;7.494;2024-02-28T06:14:59;53.38;;;23.20;;
5077;SDS011;2557;51.390;7.494;2024-02-28T06:17:25;50.13;;;25.00;;
5077;SDS011;2557;51.390;7.494;2024-02-28T06:19:51;60.42;;;24.75;;
5077;SDS011;2557;51.390;7.494;2024-02-28T06:22:17;60.50;;;22.23;;
5077;SDS011;2557;51.390;7.494;2024-02-28T06:24:44;57.70;;;24.08;;
5077;SDS011;2557;51.390;7.494;2024-02-28T06:27:10;56.65;;;24.15;;
5077;SDS011;2557;51.390;7.494;2024-02-28T06:29:38;66.15;;;27.70;;
5077;SDS011;2557;51.390;7.494;2024-02-28T06:32:04;56.47;;;23.83;;
5077;SDS011;2557;51.390;7.494;2024-02-28T06:34:30;63.92;;;25.85;;
5077;SDS011;2557;51.390;7.494;2024-02-28T06:36:56;61.83;;;26.37;;
5077;SDS011;2557;51.390;7.494;2024-02-28T06:39:22;63.20;;;27.35;;
5077;SDS011;2557;51.390;7.494;2024-02-28T06:41:49;61.03;;;26.50;;
5077;SDS011;2557;51.390;7.494;2024-02-28T06:44:16;65.30;;;25.65;;
5077;SDS011;2557;51.390;7.494;2024-02-28T06:46:42;63.57;;;27.27;;
5077;SDS011;2557;51.390;7.494;2024-02-28T06:49:08;60.85;;;26.85;;
5077;SDS011;2557;51.390;7.494;2024-02-28T06:51:34;64.57;;;25.45;;
5077;SDS011;2557;51.390;7.494;2024-02-28T06:54:00;67.95;;;26.13;;
5077;SDS011;2557;51.390;7.494;2024-02-28T06:56:26;61.27;;;26.47;;
5077;SDS011;2557;51.390;7.494;2024-02-28T06:58:52;61.65;;;27.58;;
5077;SDS011;2557;51.390;7.494;2024-02-28T07:01:18;64.90;;;27.80;;
5077;SDS011;2557;51.390;7.494;2024-02-28T07:03:44;60.97;;;25.97;;
5077;SDS011;2557;51.390;7.494;2024-02-28T07:06:11;59.13;;;27.05;;
5077;SDS011;2557;51.390;7.494;2024-02-28T07:08:37;61.88;;;25.48;;
5077;SDS011;2557;51.390;7.494;2024-02-28T07:11:03;70.13;;;28.20;;
5077;SDS011;2557;51.390;7.494;2024-02-28T07:13:29;78.30;;;32.95;;
5077;SDS011;2557;51.390;7.494;2024-02-28T07:15:55;71.70;;;29.95;;
5077;SDS011;2557;51.390;7.494;2024-02-28T07:18:22;72.05;;;29.45;;
5077;SDS011;2557;51.390;7.494;2024-02-28T07:20:50;57.65;;;25.50;;
5077;SDS011;2557;51.390;7.494;2024-02-28T07:23:17;63.05;;;27.40;;
5077;SDS011;2557;51.390;7.494;2024-02-28T07:25:43;81.93;;;26.60;;
5077;SDS011;2557;51.390;7.494;2024-02-28T07:28:09;80.30;;;28.90;;
5077;SDS011;2557;51.390;7.494;2024-02-28T07:30:35;59.95;;;27.27;;
5077;SDS011;2557;51.390;7.494;2024-02-28T07:33:01;66.50;;;26.80;;
5077;SDS011;2557;51.390;7.494;2024-02-28T07:35:27;70.47;;;27.65;;
5077;SDS011;2557;51.390;7.494;2024-02-28T07:37:53;70.13;;;27.40;;
5077;SDS011;2557;51.390;7.494;2024-02-28T07:40:19;65.53;;;28.17;;
5077;SDS011;2557;51.390;7.494;2024-02-28T07:42:45;62.57;;;28.73;;
5077;SDS011;2557;51.390;7.494;2024-02-28T07:45:11;73.65;;;26.77;;
5077;SDS011;2557;51.390;7.494;2024-02-28T07:47:38;77.82;;;29.40;;
5077;SDS011;2557;51.390;7.494;2024-02-28T07:50:05;65.28;;;27.48;;
5077;SDS011;2557;51.390;7.494;2024-02-28T07:52:31;60.78;;;26.50;;
5077;SDS011;2557;51.390;7.494;2024-02-28T07:55:00;68.45;;;31.63;;
5077;SDS011;2557;51.390;7.494;2024-02-28T07:57:27;69.68;;;27.83;;
5077;SDS011;2557;51.390;7.494;2024-02-28T07:59:53;61.90;;;27.05;;
5077;SDS011;2557;51.390;7.494;2024-02-28T08:02:19;62.30;;;26.97;;
5077;SDS011;2557;51.390;7.494;2024-02-28T08:04:45;67.43;;;28.17;;
5077;SDS011;2557;51.390;7.494;2024-02-28T08:07:11;70.68;;;27.58;;
5077;SDS011;2557;51.390;7.494;2024-02-28T08:09:37;71.80;;;30.70;;
5077;SDS011;2557;51.390;7.494;2024-02-28T08:12:03;73.53;;;27.00;;
5077;SDS011;2557;51.390;7.494;2024-02-28T08:14:29;64.50;;;28.65;;
5077;SDS011;2557;51.390;7.494;2024-02-28T08:16:55;71.07;;;29.80;;
5077;SDS011;2557;51.390;7.494;2024-02-28T08:19:21;75.87;;;30.63;;
5077;SDS011;2557;51.390;7.494;2024-02-28T08:21:47;69.38;;;29.77;;
5077;SDS011;2557;51.390;7.494;2024-02-28T08:24:14;69.63;;;30.50;;
5077;SDS011;2557;51.390;7.494;2024-02-28T08:26:40;65.55;;;31.67;;
5077;SDS011;2557;51.390;7.494;2024-02-28T08:29:07;73.00;;;32.10;;
5077;SDS011;2557;51.390;7.494;2024-02-28T08:31:33;73.53;;;30.00;;
5077;SDS011;2557;51.390;7.494;2024-02-28T08:34:04;71.57;;;32.13;;
5077;SDS011;2557;51.390;7.494;2024-02-28T08:36:30;70.77;;;30.50;;
5077;SDS011;2557;51.390;7.494;2024-02-28T08:38:56;67.63;;;31.50;;
5077;SDS011;2557;51.390;7.494;2024-02-28T08:41:22;69.60;;;32.83;;
5077;SDS011;2557;51.390;7.494;2024-02-28T08:43:48;73.83;;;31.10;;
5077;SDS011;2557;51.390;7.494;2024-02-28T08:46:14;83.20;;;34.00;;
5077;SDS011;2557;51.390;7.494;2024-02-28T08:48:41;72.37;;;30.80;;
5077;SDS011;2557;51.390;7.494;2024-02-28T08:51:08;78.53;;;32.23;;
5077;SDS011;2557;51.390;7.494;2024-02-28T08:53:34;73.37;;;31.97;;
5077;SDS011;2557;51.390;7.494;2024-02-28T08:56:00;78.57;;;31.50;;
5077;SDS011;2557;51.390;7.494;2024-02-28T08:58:26;66.23;;;28.90;;
5077;SDS011;2557;51.390;7.494;2024-02-28T09:00:52;63.10;;;29.10;;
5077;SDS011;2557;51.390;7.494;2024-02-28T09:03:18;70.13;;;33.17;;
5077;SDS011;2557;51.390;7.494;2024-02-28T09:05:46;69.33;;;30.80;;
5077;SDS011;2557;51.390;7.494;2024-02-28T09:08:12;69.53;;;30.47;;
5077;SDS011;2557;51.390;7.494;2024-02-28T09:10:38;60.37;;;29.57;;
5077;SDS011;2557;51.390;7.494;2024-02-28T09:13:04;65.80;;;31.10;;
5077;SDS011;2557;51.390;7.494;2024-02-28T09:15:31;65.20;;;31.73;;
5077;SDS011;2557;51.390;7.494;2024-02-28T09:17:59;67.50;;;31.03;;
5077;SDS011;2557;51.390;7.494;2024-02-28T09:20:25;70.67;;;33.37;;
5077;SDS011;2557;51.390;7.494;2024-02-28T09:22:51;72.10;;;31.27;;
5077;SDS011;2557;51.390;7.494;2024-02-28T09:25:17;61.63;;;30.20;;
5077;SDS011;2557;51.390;7.494;2024-02-28T09:27:46;56.67;;;31.93;;
5077;SDS011;2557;51.390;7.494;2024-02-28T09:30:12;65.83;;;33.10;;
5077;SDS011;2557;51.390;7.494;2024-02-28T09:32:38;64.17;;;29.47;;
5077;SDS011;2557;51.390;7.494;2024-02-28T09:35:04;68.47;;;34.50;;
5077;SDS011;2557;51.390;7.494;2024-02-28T09:37:31;62.67;;;32.50;;
5077;SDS011;2557;51.390;7.494;2024-02-28T09:39:57;71.27;;;32.47;;
5077;SDS011;2557;51.390;7.494;2024-02-28T09:42:23;52.90;;;28.33;;
5077;SDS011;2557;51.390;7.494;2024-02-28T09:44:49;54.63;;;28.20;;
5077;SDS011;2557;51.390;7.494;2024-02-28T09:47:16;67.10;;;33.00;;
5077;SDS011;2557;51.390;7.494;2024-02-28T09:49:42;52.73;;;27.67;;
5077;SDS011;2557;51.390;7.494;2024-02-28T09:52:08;49.47;;;27.80;;
5077;SDS011;2557;51.390;7.494;2024-02-28T09:54:34;55.80;;;30.37;;
5077;SDS011;2557;51.390;7.494;2024-02-28T09:57:00;54.03;;;29.47;;
5077;SDS011;2557;51.390;7.494;2024-02-28T09:59:26;55.30;;;30.00;;
5077;SDS011;2557;51.390;7.494;2024-02-28T10:01:56;50.80;;;28.40;;
5077;SDS011;2557;51.390;7.494;2024-02-28T10:04:23;50.00;;;27.83;;
5077;SDS011;2557;51.390;7.494;2024-02-28T10:06:49;64.03;;;31.47;;
5077;SDS011;2557;51.390;7.494;2024-02-28T10:09:15;52.00;;;28.20;;
5077;SDS011;2557;51.390;7.494;2024-02-28T10:11:42;56.00;;;29.40;;
5077;SDS011;2557;51.390;7.494;2024-02-28T10:14:09;56.60;;;29.27;;
5077;SDS011;2557;51.390;7.494;2024-02-28T10:16:35;58.73;;;31.73;;
5077;SDS011;2557;51.390;7.494;2024-02-28T10:19:01;57.97;;;29.93;;
5077;SDS011;2557;51.390;7.494;2024-02-28T10:21:29;52.73;;;27.23;;
5077;SDS011;2557;51.390;7.494;2024-02-28T10:23:57;46.17;;;24.43;;
5077;SDS011;2557;51.390;7.494;2024-02-28T10:26:24;46.20;;;26.67;;
5077;SDS011;2557;51.390;7.494;2024-02-28T10:28:51;46.50;;;27.23;;
5077;SDS011;2557;51.390;7.494;2024-02-28T10:31:17;47.30;;;26.77;;
5077;SDS011;2557;51.390;7.494;2024-02-28T10:33:43;44.73;;;27.30;;
5077;SDS011;2557;51.390;7.494;2024-02-28T10:36:09;42.60;;;25.70;;
5077;SDS011;2557;51.390;7.494;2024-02-28T10:38:36;44.47;;;27.17;;
5077;SDS011;2557;51.390;7.494;2024-02-28T10:41:02;39.43;;;24.83;;
5077;SDS011;2557;51.390;7.494;2024-02-28T10:43:29;45.90;;;25.30;;
5077;SDS011;2557;51.390;7.494;2024-02-28T10:45:58;42.10;;;26.93;;
5077;SDS011;2557;51.390;7.494;2024-02-28T10:48:24;36.77;;;25.00;;
5077;SDS011;2557;51.390;7.494;2024-02-28T10:50:51;40.80;;;26.27;;
5077;SDS011;2557;51.390;7.494;2024-02-28T10:53:25;42.27;;;26.67;;
5077;SDS011;2557;51.390;7.494;2024-02-28T10:55:53;37.83;;;24.90;;
5077;SDS011;2557;51.390;7.494;2024-02-28T10:58:22;36.60;;;24.50;;
5077;SDS011;2557;51.390;7.494;2024-02-28T11:00:50;41.10;;;26.20;;
5077;SDS011;2557;51.390;7.494;2024-02-28T11:03:17;40.83;;;28.07;;
5077;SDS011;2557;51.390;7.494;2024-02-28T11:05:44;43.50;;;28.10;;
5077;SDS011;2557;51.390;7.494;2024-02-28T11:08:20;43.63;;;28.23;;
5077;SDS011;2557;51.390;7.494;2024-02-28T11:10:47;39.70;;;25.70;;
5077;SDS011;2557;51.390;7.494;2024-02-28T11:13:23;40.30;;;28.90;;
5077;SDS011;2557;51.390;7.494;2024-02-28T11:15:49;43.80;;;26.00;;
5077;SDS011;2557;51.390;7.494;2024-02-28T11:18:15;44.10;;;27.67;;
5077;SDS011;2557;51.390;7.494;2024-02-28T11:20:42;41.10;;;28.67;;
5077;SDS011;2557;51.390;7.494;2024-02-28T11:23:11;40.63;;;26.90;;
5077;SDS011;2557;51.390;7.494;2024-02-28T11:25:39;39.93;;;26.80;;
5077;SDS011;2557;51.390;7.494;2024-02-28T11:28:05;39.17;;;26.17;;
5077;SDS011;2557;51.390;7.494;2024-02-28T11:30:31;39.60;;;27.50;;
5077;SDS011;2557;51.390;7.494;2024-02-28T11:32:57;40.03;;;25.93;;
5077;SDS011;2557;51.390;7.494;2024-02-28T11:35:24;38.60;;;27.07;;
5077;SDS011;2557;51.390;7.494;2024-02-28T11:37:50;39.33;;;27.13;;
5077;SDS011;2557;51.390;7.494;2024-02-28T11:40:18;37.37;;;25.47;;
5077;SDS011;2557;51.390;7.494;2024-02-28T11:42:45;40.87;;;26.40;;
5077;SDS011;2557;51.390;7.494;2024-02-28T11:45:11;41.87;;;27.00;;
5077;SDS011;2557;51.390;7.494;2024-02-28T11:47:37;39.67;;;25.23;;
5077;SDS011;2557;51.390;7.494;2024-02-28T11:50:03;37.60;;;25.80;;
5077;SDS011;2557;51.390;7.494;2024-02-28T11:52:33;34.70;;;24.00;;
5077;SDS011;2557;51.390;7.494;2024-02-28T11:54:59;35.70;;;24.63;;
5077;SDS011;2557;51.390;7.494;2024-02-28T11:57:25;35.53;;;23.03;;
5077;SDS011;2557;51.390;7.494;2024-02-28T11:59:51;38.47;;;26.47;;
5077;SDS011;2557;51.390;7.494;2024-02-28T12:02:17;39.70;;;25.40;;
5077;SDS011;2557;51.390;7.494;2024-02-28T12:04:44;37.87;;;25.37;;
5077;SDS011;2557;51.390;7.494;2024-02-28T12:07:11;39.97;;;25.40;;
5077;SDS011;2557;51.390;7.494;2024-02-28T12:09:37;32.70;;;22.17;;
5077;SDS011;2557;51.390;7.494;2024-02-28T12:12:04;33.83;;;23.00;;
5077;SDS011;2557;51.390;7.494;2024-02-28T12:14:36;37.93;;;24.20;;
5077;SDS011;2557;51.390;7.494;2024-02-28T12:17:07;40.53;;;25.37;;
5077;SDS011;2557;51.390;7.494;2024-02-28T12:19:35;38.97;;;24.57;;
5077;SDS011;2557;51.390;7.494;2024-02-28T12:22:01;37.60;;;27.00;;
5077;SDS011;2557;51.390;7.494;2024-02-28T12:24:27;41.13;;;26.50;;
5077;SDS011;2557;51.390;7.494;2024-02-28T12:26:53;40.47;;;25.13;;
5077;SDS011;2557;51.390;7.494;2024-02-28T12:29:19;40.30;;;26.63;;
5077;SDS011;2557;51.390;7.494;2024-02-28T12:31:45;40.30;;;26.50;;
5077;SDS011;2557;51.390;7.494;2024-02-28T12:34:11;38.17;;;24.80;;
5077;SDS011;2557;51.390;7.494;2024-02-28T12:36:40;42.33;;;27.30;;
5077;SDS011;2557;51.390;7.494;2024-02-28T12:39:06;40.00;;;25.37;;
5077;SDS011;2557;51.390;7.494;2024-02-28T12:41:36;44.57;;;27.57;;
5077;SDS011;2557;51.390;7.494;2024-02-28T12:44:03;44.87;;;27.00;;
5077;SDS011;2557;51.390;7.494;2024-02-28T12:46:29;40.67;;;26.67;;
5077;SDS011;2557;51.390;7.494;2024-02-28T12:48:55;42.03;;;25.27;;
5077;SDS011;2557;51.390;7.494;2024-02-28T12:51:40;43.07;;;26.77;;
5077;SDS011;2557;51.390;7.494;2024-02-28T12:54:07;37.67;;;25.13;;
5077;SDS011;2557;51.390;7.494;2024-02-28T12:56:33;41.93;;;25.90;;
5077;SDS011;2557;51.390;7.494;2024-02-28T12:58:59;40.00;;;25.30;;
5077;SDS011;2557;51.390;7.494;2024-02-28T13:01:26;43.87;;;26.47;;
5077;SDS011;2557;51.390;7.494;2024-02-28T13:03:53;38.17;;;24.23;;
5077;SDS011;2557;51.390;7.494;2024-02-28T13:06:19;40.33;;;27.10;;
5077;SDS011;2557;51.390;7.494;2024-02-28T13:08:45;39.80;;;25.10;;
5077;SDS011;2557;51.390;7.494;2024-02-28T13:11:16;34.00;;;22.93;;
5077;SDS011;2557;51.390;7.494;2024-02-28T13:13:42;33.83;;;22.50;;
5077;SDS011;2557;51.390;7.494;2024-02-28T13:16:08;34.33;;;22.47;;
5077;SDS011;2557;51.390;7.494;2024-02-28T13:18:34;36.93;;;22.37;;
5077;SDS011;2557;51.390;7.494;2024-02-28T13:21:00;29.43;;;20.20;;
5077;SDS011;2557;51.390;7.494;2024-02-28T13:23:28;39.03;;;22.00;;
5077;SDS011;2557;51.390;7.494;2024-02-28T13:25:56;30.87;;;19.57;;
5077;SDS011;2557;51.390;7.494;2024-02-28T13:28:22;32.53;;;20.10;;
5077;SDS011;2557;51.390;7.494;2024-02-28T13:30:55;39.37;;;23.93;;
5077;SDS011;2557;51.390;7.494;2024-02-28T13:33:21;38.57;;;21.80;;
5077;SDS011;2557;51.390;7.494;2024-02-28T13:35:47;36.33;;;23.03;;
5077;SDS011;2557;51.390;7.494;2024-02-28T13:38:14;45.30;;;23.60;;
5077;SDS011;2557;51.390;7.494;2024-02-28T13:40:40;35.73;;;21.90;;
5077;SDS011;2557;51.390;7.494;2024-02-28T13:43:09;39.80;;;21.20;;
5077;SDS011;2557;51.390;7.494;2024-02-28T13:45:35;43.77;;;22.93;;
5077;SDS011;2557;51.390;7.494;2024-02-28T13:48:01;40.23;;;21.40;;
5077;SDS011;2557;51.390;7.494;2024-02-28T13:50:28;38.87;;;20.70;;
5077;SDS011;2557;51.390;7.494;2024-02-28T13:52:57;38.83;;;21.27;;
5077;SDS011;2557;51.390;7.494;2024-02-28T13:55:23;32.13;;;20.13;;
5077;SDS011;2557;51.390;7.494;2024-02-28T13:57:49;27.87;;;18.27;;
5077;SDS011;2557;51.390;7.494;2024-02-28T14:00:15;31.90;;;19.90;;
5077;SDS011;2557;51.390;7.494;2024-02-28T14:02:41;32.33;;;19.27;;
5077;SDS011;2557;51.390;7.494;2024-02-28T14:05:07;36.20;;;20.57;;
5077;SDS011;2557;51.390;7.494;2024-02-28T14:07:33;36.80;;;21.83;;
5077;SDS011;2557;51.390;7.494;2024-02-28T14:10:02;34.03;;;20.33;;
5077;SDS011;2557;51.390;7.494;2024-02-28T14:12:28;41.77;;;22.63;;
5077;SDS011;2557;51.390;7.494;2024-02-28T14:14:54;35.37;;;20.87;;
5077;SDS011;2557;51.390;7.494;2024-02-28T14:17:20;37.63;;;22.70;;
5077;SDS011;2557;51.390;7.494;2024-02-28T14:19:46;44.47;;;23.00;;
5077;SDS011;2557;51.390;7.494;2024-02-28T14:22:13;35.97;;;21.10;;
5077;SDS011;2557;51.390;7.494;2024-02-28T14:24:39;36.60;;;21.60;;
5077;SDS011;2557;51.390;7.494;2024-02-28T14:27:05;38.37;;;21.97;;
5077;SDS011;2557;51.390;7.494;2024-02-28T14:29:31;39.80;;;22.33;;
5077;SDS011;2557;51.390;7.494;2024-02-28T14:31:57;38.30;;;20.17;;
5077;SDS011;2557;51.390;7.494;2024-02-28T14:34:25;33.80;;;21.00;;
5077;SDS011;2557;51.390;7.494;2024-02-28T14:36:54;36.03;;;22.57;;
5077;SDS011;2557;51.390;7.494;2024-02-28T14:39:20;38.23;;;21.30;;
5077;SDS011;2557;51.390;7.494;2024-02-28T14:41:46;35.80;;;21.27;;
5077;SDS011;2557;51.390;7.494;2024-02-28T14:44:12;39.00;;;21.80;;